sensor_id;sensor_type;location;lat;lon;timestamp;temperature;humidity
41722;DHT22;27407;24.142;-110.310;2023-07-30T00:02:17;46.40;68.00
41722;DHT22;27407;24.142;-110.310;2023-07-30T00:04:44;46.40;67.90
41722;DHT22;27407;24.142;-110.310;2023-07-30T00:07:11;46.20;68.20
41722;DHT22;27407;24.142;-110.310;2023-07-30T00:09:38;46.10;67.40
41722;DHT22;27407;24.142;-110.310;2023-07-30T00:12:06;45.90;67.70
41722;DHT22;27407;24.142;-110.310;2023-07-30T00:14:34;45.60;69.40
41722;DHT22;27407;24.142;-110.310;2023-07-30T00:17:01;45.20;70.40
41722;DHT22;27407;24.142;-110.310;2023-07-30T00:19:28;45.30;70.20
41722;DHT22;27407;24.142;-110.310;2023-07-30T00:21:54;45.00;70.50
41722;DHT22;27407;24.142;-110.310;2023-07-30T00:24:21;44.90;71.10
41722;DHT22;27407;24.142;-110.310;2023-07-30T00:26:48;45.20;73.90
41722;DHT22;27407;24.142;-110.310;2023-07-30T00:29:14;45.30;74.80
41722;DHT22;27407;24.142;-110.310;2023-07-30T00:31:41;44.70;75.90
41722;DHT22;27407;24.142;-110.310;2023-07-30T00:34:07;44.20;76.90
41722;DHT22;27407;24.142;-110.310;2023-07-30T00:36:34;44.20;77.20
41722;DHT22;27407;24.142;-110.310;2023-07-30T00:39:01;43.90;77.80
41722;DHT22;27407;24.142;-110.310;2023-07-30T00:41:27;43.80;78.20
41722;DHT22;27407;24.142;-110.310;2023-07-30T00:43:54;43.70;78.00
41722;DHT22;27407;24.142;-110.310;2023-07-30T00:46:21;43.60;78.50
41722;DHT22;27407;24.142;-110.310;2023-07-30T00:48:47;43.40;78.50
41722;DHT22;27407;24.142;-110.310;2023-07-30T00:51:16;43.20;79.10
41722;DHT22;27407;24.142;-110.310;2023-07-30T00:53:43;42.70;79.80
41722;DHT22;27407;24.142;-110.310;2023-07-30T00:56:09;42.40;80.30
41722;DHT22;27407;24.142;-110.310;2023-07-30T00:58:36;42.20;81.40
41722;DHT22;27407;24.142;-110.310;2023-07-30T01:01:03;42.20;81.30
41722;DHT22;27407;24.142;-110.310;2023-07-30T01:03:30;42.20;82.20
41722;DHT22;27407;24.142;-110.310;2023-07-30T01:05:56;41.70;83.60
41722;DHT22;27407;24.142;-110.310;2023-07-30T01:08:23;41.40;84.50
41722;DHT22;27407;24.142;-110.310;2023-07-30T01:10:50;41.10;84.70
41722;DHT22;27407;24.142;-110.310;2023-07-30T01:13:18;41.00;85.00
41722;DHT22;27407;24.142;-110.310;2023-07-30T01:15:45;40.50;85.90
41722;DHT22;27407;24.142;-110.310;2023-07-30T01:18:12;40.30;86.30
41722;DHT22;27407;24.142;-110.310;2023-07-30T01:20:39;40.20;86.70
41722;DHT22;27407;24.142;-110.310;2023-07-30T01:23:06;40.00;87.00
41722;DHT22;27407;24.142;-110.310;2023-07-30T01:25:36;39.90;87.00
41722;DHT22;27407;24.142;-110.310;2023-07-30T01:28:05;39.50;87.30
41722;DHT22;27407;24.142;-110.310;2023-07-30T01:30:41;39.10;88.70
41722;DHT22;27407;24.142;-110.310;2023-07-30T01:33:10;38.80;88.80
41722;DHT22;27407;24.142;-110.310;2023-07-30T01:35:38;38.00;90.00
41722;DHT22;27407;24.142;-110.310;2023-07-30T01:38:06;37.80;90.10
41722;DHT22;27407;24.142;-110.310;2023-07-30T01:40:34;37.70;90.20
41722;DHT22;27407;24.142;-110.310;2023-07-30T01:43:00;37.40;90.50
41722;DHT22;27407;24.142;-110.310;2023-07-30T01:45:27;37.20;90.60
41722;DHT22;27407;24.142;-110.310;2023-07-30T01:47:54;36.80;91.20
41722;DHT22;27407;24.142;-110.310;2023-07-30T01:50:21;36.70;91.30
41722;DHT22;27407;24.142;-110.310;2023-07-30T01:52:47;36.40;91.70
41722;DHT22;27407;24.142;-110.310;2023-07-30T01:55:14;36.20;92.00
41722;DHT22;27407;24.142;-110.310;2023-07-30T01:57:41;36.00;92.30
41722;DHT22;27407;24.142;-110.310;2023-07-30T02:00:07;35.70;92.50
41722;DHT22;27407;24.142;-110.310;2023-07-30T02:02:34;35.60;93.10
41722;DHT22;27407;24.142;-110.310;2023-07-30T02:05:01;35.30;93.60
41722;DHT22;27407;24.142;-110.310;2023-07-30T02:07:28;35.30;93.60
41722;DHT22;27407;24.142;-110.310;2023-07-30T02:09:55;35.20;93.90
41722;DHT22;27407;24.142;-110.310;2023-07-30T02:12:22;35.20;94.20
41722;DHT22;27407;24.142;-110.310;2023-07-30T02:14:49;35.10;94.50
41722;DHT22;27407;24.142;-110.310;2023-07-30T02:17:16;34.80;94.80
41722;DHT22;27407;24.142;-110.310;2023-07-30T02:19:42;34.50;95.30
41722;DHT22;27407;24.142;-110.310;2023-07-30T02:22:09;34.50;95.50
41722;DHT22;27407;24.142;-110.310;2023-07-30T02:24:36;34.50;96.00
41722;DHT22;27407;24.142;-110.310;2023-07-30T02:27:02;34.40;95.90
41722;DHT22;27407;24.142;-110.310;2023-07-30T02:29:29;34.40;96.10
41722;DHT22;27407;24.142;-110.310;2023-07-30T02:31:57;34.50;96.40
41722;DHT22;27407;24.142;-110.310;2023-07-30T02:34:25;34.20;96.80
41722;DHT22;27407;24.142;-110.310;2023-07-30T02:36:52;34.00;97.20
41722;DHT22;27407;24.142;-110.310;2023-07-30T02:39:19;33.90;97.40
41722;DHT22;27407;24.142;-110.310;2023-07-30T02:41:46;33.90;97.60
41722;DHT22;27407;24.142;-110.310;2023-07-30T02:44:13;33.90;97.70
41722;DHT22;27407;24.142;-110.310;2023-07-30T02:46:40;33.80;97.70
41722;DHT22;27407;24.142;-110.310;2023-07-30T02:49:06;33.70;97.80
41722;DHT22;27407;24.142;-110.310;2023-07-30T02:51:34;33.80;97.70
41722;DHT22;27407;24.142;-110.310;2023-07-30T02:54:04;33.60;97.90
41722;DHT22;27407;24.142;-110.310;2023-07-30T02:56:31;33.60;98.50
41722;DHT22;27407;24.142;-110.310;2023-07-30T02:58:59;33.50;98.30
41722;DHT22;27407;24.142;-110.310;2023-07-30T03:01:26;33.50;98.20
41722;DHT22;27407;24.142;-110.310;2023-07-30T03:03:52;33.30;98.40
41722;DHT22;27407;24.142;-110.310;2023-07-30T03:06:19;33.20;98.70
41722;DHT22;27407;24.142;-110.310;2023-07-30T03:08:45;33.10;98.70
41722;DHT22;27407;24.142;-110.310;2023-07-30T03:11:12;33.20;98.60
41722;DHT22;27407;24.142;-110.310;2023-07-30T03:13:39;33.20;98.60
41722;DHT22;27407;24.142;-110.310;2023-07-30T03:16:06;33.10;99.10
41722;DHT22;27407;24.142;-110.310;2023-07-30T03:18:33;33.00;99.30
41722;DHT22;27407;24.142;-110.310;2023-07-30T03:21:00;32.80;99.70
41722;DHT22;27407;24.142;-110.310;2023-07-30T03:23:27;32.60;99.90
41722;DHT22;27407;24.142;-110.310;2023-07-30T03:25:54;32.60;99.90
41722;DHT22;27407;24.142;-110.310;2023-07-30T03:28:21;32.50;99.90
41722;DHT22;27407;24.142;-110.310;2023-07-30T03:30:48;32.40;99.90
41722;DHT22;27407;24.142;-110.310;2023-07-30T03:33:14;32.20;99.90
41722;DHT22;27407;24.142;-110.310;2023-07-30T03:35:41;32.20;99.90
41722;DHT22;27407;24.142;-110.310;2023-07-30T03:38:08;32.20;99.90
41722;DHT22;27407;24.142;-110.310;2023-07-30T03:40:35;32.20;99.90
41722;DHT22;27407;24.142;-110.310;2023-07-30T03:43:01;32.30;99.90
41722;DHT22;27407;24.142;-110.310;2023-07-30T03:45:28;32.30;99.90
41722;DHT22;27407;24.142;-110.310;2023-07-30T03:47:55;32.20;99.90
41722;DHT22;27407;24.142;-110.310;2023-07-30T03:50:21;32.00;99.90
41722;DHT22;27407;24.142;-110.310;2023-07-30T03:52:48;31.90;99.90
41722;DHT22;27407;24.142;-110.310;2023-07-30T03:55:15;32.10;99.90
41722;DHT22;27407;24.142;-110.310;2023-07-30T03:57:44;32.10;99.90
41722;DHT22;27407;24.142;-110.310;2023-07-30T04:00:11;32.20;99.90
41722;DHT22;27407;24.142;-110.310;2023-07-30T04:02:38;32.30;99.90
41722;DHT22;27407;24.142;-110.310;2023-07-30T04:05:04;32.20;99.90
41722;DHT22;27407;24.142;-110.310;2023-07-30T04:07:31;32.10;99.90
41722;DHT22;27407;24.142;-110.310;2023-07-30T04:09:58;32.00;99.90
41722;DHT22;27407;24.142;-110.310;2023-07-30T04:12:24;31.80;99.90
41722;DHT22;27407;24.142;-110.310;2023-07-30T04:14:51;31.90;99.90
41722;DHT22;27407;24.142;-110.310;2023-07-30T04:17:18;32.20;99.90
41722;DHT22;27407;24.142;-110.310;2023-07-30T04:19:44;32.00;99.90
41722;DHT22;27407;24.142;-110.310;2023-07-30T04:22:11;31.90;99.90
41722;DHT22;27407;24.142;-110.310;2023-07-30T04:24:38;31.70;99.90
41722;DHT22;27407;24.142;-110.310;2023-07-30T04:27:04;31.70;99.90
41722;DHT22;27407;24.142;-110.310;2023-07-30T04:29:31;31.70;99.90
41722;DHT22;27407;24.142;-110.310;2023-07-30T04:31:58;31.70;99.90
41722;DHT22;27407;24.142;-110.310;2023-07-30T04:34:24;31.70;99.90
41722;DHT22;27407;24.142;-110.310;2023-07-30T04:36:51;31.70;99.90
41722;DHT22;27407;24.142;-110.310;2023-07-30T04:39:18;31.70;99.90
41722;DHT22;27407;24.142;-110.310;2023-07-30T04:41:45;31.70;99.90
41722;DHT22;27407;24.142;-110.310;2023-07-30T04:44:11;31.60;99.90
41722;DHT22;27407;24.142;-110.310;2023-07-30T04:46:38;31.70;99.90
41722;DHT22;27407;24.142;-110.310;2023-07-30T04:49:05;31.60;99.90
41722;DHT22;27407;24.142;-110.310;2023-07-30T04:51:31;31.50;99.90
41722;DHT22;27407;24.142;-110.310;2023-07-30T04:53:58;31.60;99.90
41722;DHT22;27407;24.142;-110.310;2023-07-30T04:56:25;31.60;99.90
41722;DHT22;27407;24.142;-110.310;2023-07-30T04:58:53;31.50;99.90
41722;DHT22;27407;24.142;-110.310;2023-07-30T05:01:20;31.50;99.90
41722;DHT22;27407;24.142;-110.310;2023-07-30T05:03:47;31.40;99.90
41722;DHT22;27407;24.142;-110.310;2023-07-30T05:06:13;31.40;99.90
41722;DHT22;27407;24.142;-110.310;2023-07-30T05:08:40;31.60;99.90
41722;DHT22;27407;24.142;-110.310;2023-07-30T05:11:07;31.70;99.90
41722;DHT22;27407;24.142;-110.310;2023-07-30T05:13:33;31.50;99.90
41722;DHT22;27407;24.142;-110.310;2023-07-30T05:16:00;31.40;99.90
41722;DHT22;27407;24.142;-110.310;2023-07-30T05:18:28;31.50;99.90
41722;DHT22;27407;24.142;-110.310;2023-07-30T05:20:55;31.40;99.90
41722;DHT22;27407;24.142;-110.310;2023-07-30T05:23:21;31.40;99.90
41722;DHT22;27407;24.142;-110.310;2023-07-30T05:25:48;31.30;99.90
41722;DHT22;27407;24.142;-110.310;2023-07-30T05:28:15;31.20;99.90
41722;DHT22;27407;24.142;-110.310;2023-07-30T05:30:41;31.30;99.90
41722;DHT22;27407;24.142;-110.310;2023-07-30T05:33:08;31.20;99.90
41722;DHT22;27407;24.142;-110.310;2023-07-30T05:35:35;31.10;99.90
41722;DHT22;27407;24.142;-110.310;2023-07-30T05:38:01;31.10;99.90
41722;DHT22;27407;24.142;-110.310;2023-07-30T05:40:28;31.00;99.90
41722;DHT22;27407;24.142;-110.310;2023-07-30T05:42:55;31.10;99.90
41722;DHT22;27407;24.142;-110.310;2023-07-30T05:45:21;30.90;99.90
41722;DHT22;27407;24.142;-110.310;2023-07-30T05:47:48;30.90;99.90
41722;DHT22;27407;24.142;-110.310;2023-07-30T05:50:14;30.90;99.90
41722;DHT22;27407;24.142;-110.310;2023-07-30T05:52:41;30.90;99.90
41722;DHT22;27407;24.142;-110.310;2023-07-30T05:55:08;30.90;99.90
41722;DHT22;27407;24.142;-110.310;2023-07-30T05:57:35;31.00;99.90
41722;DHT22;27407;24.142;-110.310;2023-07-30T06:00:02;30.80;99.90
41722;DHT22;27407;24.142;-110.310;2023-07-30T06:02:28;30.90;99.90
41722;DHT22;27407;24.142;-110.310;2023-07-30T06:04:55;30.80;99.90
41722;DHT22;27407;24.142;-110.310;2023-07-30T06:07:22;30.70;99.90
41722;DHT22;27407;24.142;-110.310;2023-07-30T06:09:48;30.80;99.90
41722;DHT22;27407;24.142;-110.310;2023-07-30T06:12:15;30.70;99.90
41722;DHT22;27407;24.142;-110.310;2023-07-30T06:14:42;30.70;99.90
41722;DHT22;27407;24.142;-110.310;2023-07-30T06:17:08;30.70;99.90
41722;DHT22;27407;24.142;-110.310;2023-07-30T06:19:35;30.60;99.90
41722;DHT22;27407;24.142;-110.310;2023-07-30T06:22:02;30.50;99.90
41722;DHT22;27407;24.142;-110.310;2023-07-30T06:24:28;30.50;99.90
41722;DHT22;27407;24.142;-110.310;2023-07-30T06:26:55;30.50;99.90
41722;DHT22;27407;24.142;-110.310;2023-07-30T06:29:22;30.50;99.90
41722;DHT22;27407;24.142;-110.310;2023-07-30T06:31:48;30.50;99.90
41722;DHT22;27407;24.142;-110.310;2023-07-30T06:34:15;30.60;99.90
41722;DHT22;27407;24.142;-110.310;2023-07-30T06:36:42;30.50;99.90
41722;DHT22;27407;24.142;-110.310;2023-07-30T06:39:08;30.50;99.90
41722;DHT22;27407;24.142;-110.310;2023-07-30T06:41:35;30.60;99.90
41722;DHT22;27407;24.142;-110.310;2023-07-30T06:44:02;30.40;99.90
41722;DHT22;27407;24.142;-110.310;2023-07-30T06:46:28;30.30;99.90
41722;DHT22;27407;24.142;-110.310;2023-07-30T06:48:55;30.30;99.90
41722;DHT22;27407;24.142;-110.310;2023-07-30T06:51:24;30.30;99.90
41722;DHT22;27407;24.142;-110.310;2023-07-30T06:53:51;30.30;99.90
41722;DHT22;27407;24.142;-110.310;2023-07-30T06:56:18;30.30;99.90
41722;DHT22;27407;24.142;-110.310;2023-07-30T06:58:51;30.30;99.90
41722;DHT22;27407;24.142;-110.310;2023-07-30T07:01:18;30.10;99.90
41722;DHT22;27407;24.142;-110.310;2023-07-30T07:03:44;30.10;99.90
41722;DHT22;27407;24.142;-110.310;2023-07-30T07:06:11;30.10;99.90
41722;DHT22;27407;24.142;-110.310;2023-07-30T07:08:38;30.10;99.90
41722;DHT22;27407;24.142;-110.310;2023-07-30T07:11:04;30.00;99.90
41722;DHT22;27407;24.142;-110.310;2023-07-30T07:13:31;30.10;99.90
41722;DHT22;27407;24.142;-110.310;2023-07-30T07:15:57;29.90;99.90
41722;DHT22;27407;24.142;-110.310;2023-07-30T07:18:24;29.90;99.90
41722;DHT22;27407;24.142;-110.310;2023-07-30T07:20:51;29.90;99.90
41722;DHT22;27407;24.142;-110.310;2023-07-30T07:23:17;29.90;99.90
41722;DHT22;27407;24.142;-110.310;2023-07-30T07:25:44;29.90;99.90
41722;DHT22;27407;24.142;-110.310;2023-07-30T07:28:11;29.90;99.90
41722;DHT22;27407;24.142;-110.310;2023-07-30T07:30:37;29.90;99.90
41722;DHT22;27407;24.142;-110.310;2023-07-30T07:33:04;29.90;99.90
41722;DHT22;27407;24.142;-110.310;2023-07-30T07:35:37;29.80;99.90
41722;DHT22;27407;24.142;-110.310;2023-07-30T07:38:04;29.80;99.90
41722;DHT22;27407;24.142;-110.310;2023-07-30T07:40:35;29.90;99.90
41722;DHT22;27407;24.142;-110.310;2023-07-30T07:43:02;29.90;99.90
41722;DHT22;27407;24.142;-110.310;2023-07-30T07:45:28;29.80;99.90
41722;DHT22;27407;24.142;-110.310;2023-07-30T07:47:55;29.60;99.90
41722;DHT22;27407;24.142;-110.310;2023-07-30T07:50:21;29.80;99.90
41722;DHT22;27407;24.142;-110.310;2023-07-30T07:52:48;29.80;99.90
41722;DHT22;27407;24.142;-110.310;2023-07-30T07:55:22;29.60;99.90
41722;DHT22;27407;24.142;-110.310;2023-07-30T07:57:49;29.70;99.90
41722;DHT22;27407;24.142;-110.310;2023-07-30T08:00:17;29.60;99.90
41722;DHT22;27407;24.142;-110.310;2023-07-30T08:02:44;29.50;99.90
41722;DHT22;27407;24.142;-110.310;2023-07-30T08:05:11;29.50;99.90
41722;DHT22;27407;24.142;-110.310;2023-07-30T08:07:37;29.50;99.90
41722;DHT22;27407;24.142;-110.310;2023-07-30T08:10:04;29.50;99.90
41722;DHT22;27407;24.142;-110.310;2023-07-30T08:12:34;29.50;99.90
41722;DHT22;27407;24.142;-110.310;2023-07-30T08:15:01;29.40;99.90
41722;DHT22;27407;24.142;-110.310;2023-07-30T08:17:28;29.60;99.90
41722;DHT22;27407;24.142;-110.310;2023-07-30T08:19:55;29.50;99.90
41722;DHT22;27407;24.142;-110.310;2023-07-30T08:22:21;29.50;99.90
41722;DHT22;27407;24.142;-110.310;2023-07-30T08:24:48;29.30;99.90
41722;DHT22;27407;24.142;-110.310;2023-07-30T08:27:15;29.30;99.90
41722;DHT22;27407;24.142;-110.310;2023-07-30T08:29:42;29.30;99.90
41722;DHT22;27407;24.142;-110.310;2023-07-30T08:32:08;29.20;99.90
41722;DHT22;27407;24.142;-110.310;2023-07-30T08:34:35;29.40;99.90
41722;DHT22;27407;24.142;-110.310;2023-07-30T08:37:02;29.30;99.90
41722;DHT22;27407;24.142;-110.310;2023-07-30T08:39:28;29.20;99.90
41722;DHT22;27407;24.142;-110.310;2023-07-30T08:41:55;29.10;99.90
41722;DHT22;27407;24.142;-110.310;2023-07-30T08:44:22;29.20;99.90
41722;DHT22;27407;24.142;-110.310;2023-07-30T08:46:48;29.20;99.90
41722;DHT22;27407;24.142;-110.310;2023-07-30T08:49:15;29.20;99.90
41722;DHT22;27407;24.142;-110.310;2023-07-30T08:51:43;29.10;99.90
41722;DHT22;27407;24.142;-110.310;2023-07-30T08:54:12;29.10;99.90
41722;DHT22;27407;24.142;-110.310;2023-07-30T08:56:40;29.10;99.90
41722;DHT22;27407;24.142;-110.310;2023-07-30T08:59:08;29.20;99.90
41722;DHT22;27407;24.142;-110.310;2023-07-30T09:01:38;29.10;99.90
41722;DHT22;27407;24.142;-110.310;2023-07-30T09:04:06;29.20;99.90
41722;DHT22;27407;24.142;-110.310;2023-07-30T09:06:34;29.10;99.90
41722;DHT22;27407;24.142;-110.310;2023-07-30T09:09:02;29.00;99.90
41722;DHT22;27407;24.142;-110.310;2023-07-30T09:11:31;29.00;99.90
41722;DHT22;27407;24.142;-110.310;2023-07-30T09:14:01;29.10;99.90
41722;DHT22;27407;24.142;-110.310;2023-07-30T09:16:29;29.10;99.90
41722;DHT22;27407;24.142;-110.310;2023-07-30T09:18:55;29.10;99.90
41722;DHT22;27407;24.142;-110.310;2023-07-30T09:21:32;28.90;99.90
41722;DHT22;27407;24.142;-110.310;2023-07-30T09:24:02;29.00;99.90
41722;DHT22;27407;24.142;-110.310;2023-07-30T09:26:45;28.80;99.90
41722;DHT22;27407;24.142;-110.310;2023-07-30T09:29:13;28.80;99.90
41722;DHT22;27407;24.142;-110.310;2023-07-30T09:31:51;28.90;99.90
41722;DHT22;27407;24.142;-110.310;2023-07-30T09:34:21;28.90;99.90
41722;DHT22;27407;24.142;-110.310;2023-07-30T09:36:51;28.90;99.90
41722;DHT22;27407;24.142;-110.310;2023-07-30T09:39:23;28.80;99.90
41722;DHT22;27407;24.142;-110.310;2023-07-30T09:41:52;28.90;99.90
41722;DHT22;27407;24.142;-110.310;2023-07-30T09:44:20;28.90;99.90
41722;DHT22;27407;24.142;-110.310;2023-07-30T09:46:48;28.90;99.90
41722;DHT22;27407;24.142;-110.310;2023-07-30T09:49:16;28.80;99.90
41722;DHT22;27407;24.142;-110.310;2023-07-30T09:51:43;28.70;99.90
41722;DHT22;27407;24.142;-110.310;2023-07-30T09:54:14;28.70;99.90
41722;DHT22;27407;24.142;-110.310;2023-07-30T09:56:41;28.80;99.90
41722;DHT22;27407;24.142;-110.310;2023-07-30T09:59:09;28.70;99.90
41722;DHT22;27407;24.142;-110.310;2023-07-30T10:01:48;28.70;99.90
41722;DHT22;27407;24.142;-110.310;2023-07-30T10:04:21;28.70;99.90
41722;DHT22;27407;24.142;-110.310;2023-07-30T10:07:03;28.80;99.90
41722;DHT22;27407;24.142;-110.310;2023-07-30T10:09:37;28.70;99.90
41722;DHT22;27407;24.142;-110.310;2023-07-30T10:12:14;28.70;99.90
41722;DHT22;27407;24.142;-110.310;2023-07-30T10:14:42;28.60;99.90
41722;DHT22;27407;24.142;-110.310;2023-07-30T10:17:12;28.60;99.90
41722;DHT22;27407;24.142;-110.310;2023-07-30T10:19:39;28.60;99.90
41722;DHT22;27407;24.142;-110.310;2023-07-30T10:25:04;28.60;99.90
41722;DHT22;27407;24.142;-110.310;2023-07-30T10:27:40;28.50;99.90
41722;DHT22;27407;24.142;-110.310;2023-07-30T10:30:16;28.50;99.90
41722;DHT22;27407;24.142;-110.310;2023-07-30T10:40:41;28.50;99.90
41722;DHT22;27407;24.142;-110.310;2023-07-30T10:43:17;28.40;99.90
41722;DHT22;27407;24.142;-110.310;2023-07-30T10:45:50;28.40;99.90
41722;DHT22;27407;24.142;-110.310;2023-07-30T10:48:17;28.40;99.90
41722;DHT22;27407;24.142;-110.310;2023-07-30T10:50:45;28.50;99.90
41722;DHT22;27407;24.142;-110.310;2023-07-30T10:53:17;28.40;99.90
41722;DHT22;27407;24.142;-110.310;2023-07-30T10:55:45;28.40;99.90
41722;DHT22;27407;24.142;-110.310;2023-07-30T10:58:12;28.50;99.90
41722;DHT22;27407;24.142;-110.310;2023-07-30T11:00:39;28.50;99.90
41722;DHT22;27407;24.142;-110.310;2023-07-30T11:03:06;28.40;99.90
41722;DHT22;27407;24.142;-110.310;2023-07-30T11:05:33;28.40;99.90
41722;DHT22;27407;24.142;-110.310;2023-07-30T11:07:59;28.30;99.90
41722;DHT22;27407;24.142;-110.310;2023-07-30T11:10:26;28.30;99.90
41722;DHT22;27407;24.142;-110.310;2023-07-30T11:12:53;28.50;99.90
41722;DHT22;27407;24.142;-110.310;2023-07-30T11:15:19;28.50;99.90
41722;DHT22;27407;24.142;-110.310;2023-07-30T11:17:46;28.40;99.90
41722;DHT22;27407;24.142;-110.310;2023-07-30T11:20:23;28.50;99.90
41722;DHT22;27407;24.142;-110.310;2023-07-30T11:22:52;28.50;99.90
41722;DHT22;27407;24.142;-110.310;2023-07-30T11:25:19;28.50;99.90
41722;DHT22;27407;24.142;-110.310;2023-07-30T11:27:50;28.40;99.90
41722;DHT22;27407;24.142;-110.310;2023-07-30T11:30:17;28.50;99.90
41722;DHT22;27407;24.142;-110.310;2023-07-30T11:32:44;28.50;99.90
41722;DHT22;27407;24.142;-110.310;2023-07-30T11:35:15;28.50;99.90
41722;DHT22;27407;24.142;-110.310;2023-07-30T11:37:43;28.50;99.90
41722;DHT22;27407;24.142;-110.310;2023-07-30T11:40:11;28.50;99.90
41722;DHT22;27407;24.142;-110.310;2023-07-30T11:42:38;28.50;99.90
41722;DHT22;27407;24.142;-110.310;2023-07-30T11:45:37;28.50;99.90
41722;DHT22;27407;24.142;-110.310;2023-07-30T11:48:08;28.40;99.90
41722;DHT22;27407;24.142;-110.310;2023-07-30T11:50:49;28.40;99.90
41722;DHT22;27407;24.142;-110.310;2023-07-30T11:53:17;28.40;99.90
41722;DHT22;27407;24.142;-110.310;2023-07-30T11:55:45;28.50;99.90
41722;DHT22;27407;24.142;-110.310;2023-07-30T11:58:12;28.60;99.90
41722;DHT22;27407;24.142;-110.310;2023-07-30T12:00:41;28.60;99.90
41722;DHT22;27407;24.142;-110.310;2023-07-30T12:03:12;28.60;99.90
41722;DHT22;27407;24.142;-110.310;2023-07-30T12:05:39;28.50;99.90
41722;DHT22;27407;24.142;-110.310;2023-07-30T12:08:13;28.50;99.90
41722;DHT22;27407;24.142;-110.310;2023-07-30T12:10:44;28.50;99.90
41722;DHT22;27407;24.142;-110.310;2023-07-30T12:13:20;28.50;99.90
41722;DHT22;27407;24.142;-110.310;2023-07-30T12:15:53;28.50;99.90
41722;DHT22;27407;24.142;-110.310;2023-07-30T12:18:21;28.50;99.90
41722;DHT22;27407;24.142;-110.310;2023-07-30T12:20:48;28.50;99.90
41722;DHT22;27407;24.142;-110.310;2023-07-30T12:23:17;28.60;99.90
41722;DHT22;27407;24.142;-110.310;2023-07-30T12:25:43;28.40;99.90
41722;DHT22;27407;24.142;-110.310;2023-07-30T12:28:10;28.50;99.90
41722;DHT22;27407;24.142;-110.310;2023-07-30T12:30:37;28.40;99.90
41722;DHT22;27407;24.142;-110.310;2023-07-30T12:33:04;28.50;99.90
41722;DHT22;27407;24.142;-110.310;2023-07-30T12:35:32;28.50;99.90
41722;DHT22;27407;24.142;-110.310;2023-07-30T12:38:01;28.60;99.90
41722;DHT22;27407;24.142;-110.310;2023-07-30T12:40:27;28.40;99.90
41722;DHT22;27407;24.142;-110.310;2023-07-30T12:43:03;28.40;99.90
41722;DHT22;27407;24.142;-110.310;2023-07-30T12:45:30;28.40;99.90
41722;DHT22;27407;24.142;-110.310;2023-07-30T12:47:57;28.30;99.90
41722;DHT22;27407;24.142;-110.310;2023-07-30T12:50:24;28.30;99.90
41722;DHT22;27407;24.142;-110.310;2023-07-30T12:52:51;28.50;99.90
41722;DHT22;27407;24.142;-110.310;2023-07-30T12:55:18;28.40;99.90
41722;DHT22;27407;24.142;-110.310;2023-07-30T12:57:45;28.60;99.90
41722;DHT22;27407;24.142;-110.310;2023-07-30T13:00:12;28.50;99.90
41722;DHT22;27407;24.142;-110.310;2023-07-30T13:02:38;28.50;99.90
41722;DHT22;27407;24.142;-110.310;2023-07-30T13:05:05;28.50;99.90
41722;DHT22;27407;24.142;-110.310;2023-07-30T13:07:32;28.50;99.90
41722;DHT22;27407;24.142;-110.310;2023-07-30T13:10:06;28.70;99.90
41722;DHT22;27407;24.142;-110.310;2023-07-30T13:12:33;28.60;99.90
41722;DHT22;27407;24.142;-110.310;2023-07-30T13:15:01;28.60;99.90
41722;DHT22;27407;24.142;-110.310;2023-07-30T13:17:27;28.70;99.90
41722;DHT22;27407;24.142;-110.310;2023-07-30T13:19:54;28.70;99.90
41722;DHT22;27407;24.142;-110.310;2023-07-30T13:22:21;28.90;99.90
41722;DHT22;27407;24.142;-110.310;2023-07-30T13:24:48;28.80;99.90
41722;DHT22;27407;24.142;-110.310;2023-07-30T13:27:14;28.90;99.90
41722;DHT22;27407;24.142;-110.310;2023-07-30T13:29:41;28.80;99.90
41722;DHT22;27407;24.142;-110.310;2023-07-30T13:32:08;28.90;99.90
41722;DHT22;27407;24.142;-110.310;2023-07-30T13:34:35;28.90;99.90
41722;DHT22;27407;24.142;-110.310;2023-07-30T13:37:01;28.90;99.90
41722;DHT22;27407;24.142;-110.310;2023-07-30T13:39:28;28.90;99.90
41722;DHT22;27407;24.142;-110.310;2023-07-30T13:41:55;28.90;99.90
41722;DHT22;27407;24.142;-110.310;2023-07-30T13:44:21;29.00;99.90
41722;DHT22;27407;24.142;-110.310;2023-07-30T13:46:48;29.00;99.90
41722;DHT22;27407;24.142;-110.310;2023-07-30T13:49:14;29.10;99.90
41722;DHT22;27407;24.142;-110.310;2023-07-30T13:51:41;29.20;99.90
41722;DHT22;27407;24.142;-110.310;2023-07-30T13:54:08;29.20;99.90
41722;DHT22;27407;24.142;-110.310;2023-07-30T13:56:34;29.30;99.90
41722;DHT22;27407;24.142;-110.310;2023-07-30T13:59:01;29.40;99.90
41722;DHT22;27407;24.142;-110.310;2023-07-30T14:01:29;29.50;99.90
41722;DHT22;27407;24.142;-110.310;2023-07-30T14:03:55;29.70;99.90
41722;DHT22;27407;24.142;-110.310;2023-07-30T14:06:23;29.80;99.90
41722;DHT22;27407;24.142;-110.310;2023-07-30T14:08:49;29.80;99.90
41722;DHT22;27407;24.142;-110.310;2023-07-30T14:11:16;30.00;99.90
41722;DHT22;27407;24.142;-110.310;2023-07-30T14:13:43;30.10;99.90
41722;DHT22;27407;24.142;-110.310;2023-07-30T14:16:09;30.10;99.90
41722;DHT22;27407;24.142;-110.310;2023-07-30T14:18:36;30.10;99.90
41722;DHT22;27407;24.142;-110.310;2023-07-30T14:21:05;30.30;99.90
41722;DHT22;27407;24.142;-110.310;2023-07-30T14:23:31;30.30;99.90
41722;DHT22;27407;24.142;-110.310;2023-07-30T14:25:58;30.40;99.90
41722;DHT22;27407;24.142;-110.310;2023-07-30T14:28:24;30.40;99.90
41722;DHT22;27407;24.142;-110.310;2023-07-30T14:30:51;30.40;99.90
41722;DHT22;27407;24.142;-110.310;2023-07-30T14:33:18;30.60;99.90
41722;DHT22;27407;24.142;-110.310;2023-07-30T14:35:44;30.60;99.90
41722;DHT22;27407;24.142;-110.310;2023-07-30T14:38:11;30.80;99.90
41722;DHT22;27407;24.142;-110.310;2023-07-30T14:40:39;30.80;99.90
41722;DHT22;27407;24.142;-110.310;2023-07-30T14:43:05;30.90;99.90
41722;DHT22;27407;24.142;-110.310;2023-07-30T14:45:32;31.00;99.90
41722;DHT22;27407;24.142;-110.310;2023-07-30T14:47:58;30.90;99.90
41722;DHT22;27407;24.142;-110.310;2023-07-30T14:50:25;31.10;99.70
41722;DHT22;27407;24.142;-110.310;2023-07-30T14:52:52;31.10;99.70
41722;DHT22;27407;24.142;-110.310;2023-07-30T14:55:18;31.30;99.80
41722;DHT22;27407;24.142;-110.310;2023-07-30T14:57:45;31.40;99.80
41722;DHT22;27407;24.142;-110.310;2023-07-30T15:00:12;31.60;99.70
41722;DHT22;27407;24.142;-110.310;2023-07-30T15:02:43;31.80;99.10